sensor_id;sensor_type;location;lat;lon;timestamp;pressure;altitude;pressure_sealevel;temperature;humidity
76095;BME280;64821;13.710;100.604;2024-02-23T00:00:42;101323.50;;;43.11;32.71
76095;BME280;64821;13.710;100.604;2024-02-23T00:01:45;101324.00;;;43.16;32.62
76095;BME280;64821;13.710;100.604;2024-02-23T00:02:49;101331.19;;;43.17;32.49
76095;BME280;64821;13.710;100.604;2024-02-23T00:03:53;101331.59;;;43.19;32.59
76095;BME280;64821;13.710;100.604;2024-02-23T00:04:57;101325.16;;;43.15;32.48
76095;BME280;64821;13.710;100.604;2024-02-23T00:06:01;101327.88;;;43.08;32.64
76095;BME280;64821;13.710;100.604;2024-02-23T00:07:05;101331.06;;;43.07;32.41
76095;BME280;64821;13.710;100.604;2024-02-23T00:08:08;101330.31;;;43.13;32.51
76095;BME280;64821;13.710;100.604;2024-02-23T00:09:12;101321.16;;;43.13;32.07
76095;BME280;64821;13.710;100.604;2024-02-23T00:10:16;101327.63;;;43.21;32.63
76095;BME280;64821;13.710;100.604;2024-02-23T00:11:22;101338.78;;;43.21;32.86
76095;BME280;64821;13.710;100.604;2024-02-23T00:12:25;101338.63;;;43.10;32.76
76095;BME280;64821;13.710;100.604;2024-02-23T00:13:29;101343.00;;;43.07;32.86
76095;BME280;64821;13.710;100.604;2024-02-23T00:14:33;101320.53;;;42.93;32.71
76095;BME280;64821;13.710;100.604;2024-02-23T00:15:37;101343.81;;;43.08;32.49
76095;BME280;64821;13.710;100.604;2024-02-23T00:16:40;101317.81;;;43.00;32.48
76095;BME280;64821;13.710;100.604;2024-02-23T00:17:44;101342.75;;;43.19;32.66
76095;BME280;64821;13.710;100.604;2024-02-23T00:18:48;101351.16;;;43.23;32.16
76095;BME280;64821;13.710;100.604;2024-02-23T00:19:52;101345.97;;;43.22;32.78
76095;BME280;64821;13.710;100.604;2024-02-23T00:20:56;101354.59;;;43.13;32.33
76095;BME280;64821;13.710;100.604;2024-02-23T00:22:00;101352.19;;;43.11;32.78
76095;BME280;64821;13.710;100.604;2024-02-23T00:23:04;101331.66;;;42.90;32.35
76095;BME280;64821;13.710;100.604;2024-02-23T00:24:08;101359.00;;;43.14;32.64
76095;BME280;64821;13.710;100.604;2024-02-23T00:25:11;101356.28;;;43.17;32.69
76095;BME280;64821;13.710;100.604;2024-02-23T00:26:33;101356.22;;;43.14;33.07
76095;BME280;64821;13.710;100.604;2024-02-23T00:27:37;101333.00;;;43.03;32.72
76095;BME280;64821;13.710;100.604;2024-02-23T00:28:41;101356.56;;;43.09;32.74
76095;BME280;64821;13.710;100.604;2024-02-23T00:29:45;101354.13;;;43.04;33.18
76095;BME280;64821;13.710;100.604;2024-02-23T00:30:48;101361.25;;;43.01;32.53
76095;BME280;64821;13.710;100.604;2024-02-23T00:31:52;101356.56;;;43.09;32.83
76095;BME280;64821;13.710;100.604;2024-02-23T00:32:56;101364.41;;;43.00;33.19
76095;BME280;64821;13.710;100.604;2024-02-23T00:34:00;101359.13;;;42.91;33.18
76095;BME280;64821;13.710;100.604;2024-02-23T00:35:04;101357.66;;;43.01;32.80
76095;BME280;64821;13.710;100.604;2024-02-23T00:36:08;101364.69;;;43.21;32.79
76095;BME280;64821;13.710;100.604;2024-02-23T00:37:11;101352.81;;;43.31;32.55
76095;BME280;64821;13.710;100.604;2024-02-23T00:38:15;101358.41;;;43.31;32.51
76095;BME280;64821;13.710;100.604;2024-02-23T00:39:19;101350.16;;;43.05;32.85
76095;BME280;64821;13.710;100.604;2024-02-23T00:40:23;101360.59;;;43.15;32.98
76095;BME280;64821;13.710;100.604;2024-02-23T00:41:28;101363.97;;;43.28;32.45
76095;BME280;64821;13.710;100.604;2024-02-23T00:42:32;101332.69;;;43.11;32.45
76095;BME280;64821;13.710;100.604;2024-02-23T00:43:38;101358.13;;;43.43;32.46
76095;BME280;64821;13.710;100.604;2024-02-23T00:44:42;101362.78;;;43.29;32.10
76095;BME280;64821;13.710;100.604;2024-02-23T00:45:46;101365.63;;;43.36;32.13
76095;BME280;64821;13.710;100.604;2024-02-23T00:46:49;101361.72;;;43.44;32.51
76095;BME280;64821;13.710;100.604;2024-02-23T00:47:54;101368.97;;;43.52;32.10
76095;BME280;64821;13.710;100.604;2024-02-23T00:48:57;101363.38;;;43.52;32.30
76095;BME280;64821;13.710;100.604;2024-02-23T00:50:01;101359.97;;;43.66;31.81
76095;BME280;64821;13.710;100.604;2024-02-23T00:51:05;101369.59;;;43.75;31.88
76095;BME280;64821;13.710;100.604;2024-02-23T00:52:09;101360.56;;;43.92;31.71
76095;BME280;64821;13.710;100.604;2024-02-23T00:53:13;101356.66;;;44.01;31.77
76095;BME280;64821;13.710;100.604;2024-02-23T00:54:17;101363.13;;;44.12;31.63
76095;BME280;64821;13.710;100.604;2024-02-23T00:55:20;101360.34;;;44.19;31.27
76095;BME280;64821;13.710;100.604;2024-02-23T00:56:24;101379.19;;;44.25;31.07
76095;BME280;64821;13.710;100.604;2024-02-23T00:57:39;101372.06;;;44.35;31.17
76095;BME280;64821;13.710;100.604;2024-02-23T00:58:43;101365.31;;;44.43;31.08
76095;BME280;64821;13.710;100.604;2024-02-23T00:59:46;101368.94;;;44.47;30.78
76095;BME280;64821;13.710;100.604;2024-02-23T01:00:50;101368.53;;;44.49;30.96
76095;BME280;64821;13.710;100.604;2024-02-23T01:01:54;101370.53;;;44.45;31.06
76095;BME280;64821;13.710;100.604;2024-02-23T01:02:58;101373.69;;;44.36;31.22
76095;BME280;64821;13.710;100.604;2024-02-23T01:04:02;101373.69;;;44.36;31.04
76095;BME280;64821;13.710;100.604;2024-02-23T01:05:07;101369.72;;;44.44;31.08
76095;BME280;64821;13.710;100.604;2024-02-23T01:06:10;101350.41;;;44.21;31.07
76095;BME280;64821;13.710;100.604;2024-02-23T01:07:14;101376.50;;;44.47;31.02
76095;BME280;64821;13.710;100.604;2024-02-23T01:08:19;101375.31;;;44.44;31.19
76095;BME280;64821;13.710;100.604;2024-02-23T01:09:23;101378.56;;;44.53;31.02
76095;BME280;64821;13.710;100.604;2024-02-23T01:10:26;101381.72;;;44.48;31.06
76095;BME280;64821;13.710;100.604;2024-02-23T01:11:30;101379.75;;;44.52;31.15
76095;BME280;64821;13.710;100.604;2024-02-23T01:12:34;101378.19;;;44.62;30.85
76095;BME280;64821;13.710;100.604;2024-02-23T01:13:39;101375.75;;;44.57;31.24
76095;BME280;64821;13.710;100.604;2024-02-23T01:14:43;101388.53;;;44.58;30.86
76095;BME280;64821;13.710;100.604;2024-02-23T01:15:47;101393.75;;;44.59;31.08
76095;BME280;64821;13.710;100.604;2024-02-23T01:16:51;101395.22;;;44.39;31.30
76095;BME280;64821;13.710;100.604;2024-02-23T01:17:54;101398.09;;;44.46;31.15
76095;BME280;64821;13.710;100.604;2024-02-23T01:18:58;101393.66;;;44.42;31.17
76095;BME280;64821;13.710;100.604;2024-02-23T01:20:02;101396.88;;;44.44;31.08
76095;BME280;64821;13.710;100.604;2024-02-23T01:21:06;101400.06;;;44.42;31.27
76095;BME280;64821;13.710;100.604;2024-02-23T01:22:10;101400.81;;;44.36;31.29
76095;BME280;64821;13.710;100.604;2024-02-23T01:23:13;101400.75;;;44.32;31.35
76095;BME280;64821;13.710;100.604;2024-02-23T01:24:17;101400.41;;;44.37;31.33
76095;BME280;64821;13.710;100.604;2024-02-23T01:25:21;101400.88;;;44.50;31.09
76095;BME280;64821;13.710;100.604;2024-02-23T01:26:25;101406.84;;;44.48;31.15
76095;BME280;64821;13.710;100.604;2024-02-23T01:27:28;101406.91;;;44.59;30.88
76095;BME280;64821;13.710;100.604;2024-02-23T01:28:32;101396.88;;;44.44;31.08
76095;BME280;64821;13.710;100.604;2024-02-23T01:29:37;101411.25;;;44.49;31.01
76095;BME280;64821;13.710;100.604;2024-02-23T01:30:41;101390.09;;;44.48;31.06
76095;BME280;64821;13.710;100.604;2024-02-23T01:31:45;101406.91;;;44.55;30.84
76095;BME280;64821;13.710;100.604;2024-02-23T01:32:49;101408.94;;;44.62;30.87
76095;BME280;64821;13.710;100.604;2024-02-23T01:33:53;101414.28;;;44.85;30.45
76095;BME280;64821;13.710;100.604;2024-02-23T01:34:56;101414.31;;;45.06;30.28
76095;BME280;64821;13.710;100.604;2024-02-23T01:36:00;101409.19;;;45.15;30.21
76095;BME280;64821;13.710;100.604;2024-02-23T01:37:04;101420.00;;;45.13;29.98
76095;BME280;64821;13.710;100.604;2024-02-23T01:38:08;101415.63;;;45.23;30.06
76095;BME280;64821;13.710;100.604;2024-02-23T01:39:11;101409.63;;;45.31;29.67
76095;BME280;64821;13.710;100.604;2024-02-23T01:40:15;101384.44;;;45.28;29.67
76095;BME280;64821;13.710;100.604;2024-02-23T01:41:19;101380.06;;;45.30;29.48
76095;BME280;64821;13.710;100.604;2024-02-23T01:42:23;101419.69;;;45.64;29.57
76095;BME280;64821;13.710;100.604;2024-02-23T01:43:26;101419.31;;;45.77;29.68
76095;BME280;64821;13.710;100.604;2024-02-23T01:44:31;101418.50;;;45.87;29.53
76095;BME280;64821;13.710;100.604;2024-02-23T01:45:36;101416.94;;;45.96;28.96
76095;BME280;64821;13.710;100.604;2024-02-23T01:46:40;101418.94;;;46.06;29.29
76095;BME280;64821;13.710;100.604;2024-02-23T01:47:43;101424.53;;;46.06;28.85
76095;BME280;64821;13.710;100.604;2024-02-23T01:48:47;101428.94;;;46.00;29.01
76095;BME280;64821;13.710;100.604;2024-02-23T01:49:51;101400.13;;;45.82;29.13
76095;BME280;64821;13.710;100.604;2024-02-23T01:50:58;101438.53;;;45.96;29.33
76095;BME280;64821;13.710;100.604;2024-02-23T01:52:02;101429.34;;;46.02;29.50
76095;BME280;64821;13.710;100.604;2024-02-23T01:53:06;101428.91;;;46.04;29.11
76095;BME280;64821;13.710;100.604;2024-02-23T01:54:10;101439.31;;;46.18;29.11
76095;BME280;64821;13.710;100.604;2024-02-23T01:55:14;101410.53;;;46.06;28.90
76095;BME280;64821;13.710;100.604;2024-02-23T01:56:19;101432.13;;;46.10;28.80
76095;BME280;64821;13.710;100.604;2024-02-23T01:57:24;101423.72;;;46.06;29.16
76095;BME280;64821;13.710;100.604;2024-02-23T01:58:48;101445.75;;;46.32;28.59
76095;BME280;64821;13.710;100.604;2024-02-23T01:59:53;101444.94;;;46.18;28.94
76095;BME280;64821;13.710;100.604;2024-02-23T02:00:58;101440.53;;;46.13;28.65
76095;BME280;64821;13.710;100.604;2024-02-23T02:02:02;101435.31;;;46.19;29.10
76095;BME280;64821;13.710;100.604;2024-02-23T02:03:06;101446.13;;;46.20;29.03
76095;BME280;64821;13.710;100.604;2024-02-23T02:04:14;101445.34;;;46.13;28.94
76095;BME280;64821;13.710;100.604;2024-02-23T02:05:18;101444.13;;;46.21;28.69
76095;BME280;64821;13.710;100.604;2024-02-23T02:06:22;101442.53;;;46.27;28.83
76095;BME280;64821;13.710;100.604;2024-02-23T02:07:26;101443.72;;;46.22;28.79
76095;BME280;64821;13.710;100.604;2024-02-23T02:08:30;101442.13;;;46.25;28.74
76095;BME280;64821;13.710;100.604;2024-02-23T02:09:34;101450.56;;;46.32;29.06
76095;BME280;64821;13.710;100.604;2024-02-23T02:10:38;101450.53;;;46.35;28.70
76095;BME280;64821;13.710;100.604;2024-02-23T02:11:46;101449.72;;;46.38;28.02
76095;BME280;64821;13.710;100.604;2024-02-23T02:12:50;101444.53;;;46.33;28.51
76095;BME280;64821;13.710;100.604;2024-02-23T02:13:54;101448.94;;;46.41;28.71
76095;BME280;64821;13.710;100.604;2024-02-23T02:14:58;101448.91;;;46.52;28.14
76095;BME280;64821;13.710;100.604;2024-02-23T02:16:03;101454.91;;;46.47;28.17
76095;BME280;64821;13.710;100.604;2024-02-23T02:17:07;101452.53;;;46.42;28.90
76095;BME280;64821;13.710;100.604;2024-02-23T02:18:11;101466.56;;;46.42;28.57
76095;BME280;64821;13.710;100.604;2024-02-23T02:19:15;101455.34;;;46.28;28.58
76095;BME280;64821;13.710;100.604;2024-02-23T02:20:19;101462.53;;;46.36;28.08
76095;BME280;64821;13.710;100.604;2024-02-23T02:21:26;101473.34;;;46.41;28.22
76095;BME280;64821;13.710;100.604;2024-02-23T02:22:32;101466.53;;;46.21;28.56
76095;BME280;64821;13.710;100.604;2024-02-23T02:23:36;101468.94;;;46.33;28.87
76095;BME280;64821;13.710;100.604;2024-02-23T02:24:40;101468.53;;;46.49;28.69
76095;BME280;64821;13.710;100.604;2024-02-23T02:25:44;101466.91;;;46.58;27.92
76095;BME280;64821;13.710;100.604;2024-02-23T02:26:47;101473.72;;;46.57;28.55
76095;BME280;64821;13.710;100.604;2024-02-23T02:27:51;101482.53;;;46.56;28.56
76095;BME280;64821;13.710;100.604;2024-02-23T02:28:55;101480.16;;;46.40;28.31
76095;BME280;64821;13.710;100.604;2024-02-23T02:29:58;101483.38;;;46.28;28.29
76095;BME280;64821;13.710;100.604;2024-02-23T02:31:04;101481.38;;;46.28;27.97
76095;BME280;64821;13.710;100.604;2024-02-23T02:32:08;101482.56;;;46.41;28.35
76095;BME280;64821;13.710;100.604;2024-02-23T02:33:11;101490.13;;;46.55;28.32
76095;BME280;64821;13.710;100.604;2024-02-23T02:34:15;101490.13;;;46.62;28.01
76095;BME280;64821;13.710;100.604;2024-02-23T02:35:19;101489.31;;;46.55;27.90
76095;BME280;64821;13.710;100.604;2024-02-23T02:36:23;101476.13;;;46.59;28.05
76095;BME280;64821;13.710;100.604;2024-02-23T02:37:27;101485.72;;;46.65;27.84
76095;BME280;64821;13.710;100.604;2024-02-23T02:38:30;101483.72;;;46.65;28.14
76095;BME280;64821;13.710;100.604;2024-02-23T02:39:34;101482.13;;;46.71;28.09
76095;BME280;64821;13.710;100.604;2024-02-23T02:40:38;101479.72;;;46.70;28.10
76095;BME280;64821;13.710;100.604;2024-02-23T02:41:42;101482.91;;;46.75;27.74
76095;BME280;64821;13.710;100.604;2024-02-23T02:42:45;101494.13;;;46.61;27.86
76095;BME280;64821;13.710;100.604;2024-02-23T02:43:49;101481.31;;;46.60;27.75
76095;BME280;64821;13.710;100.604;2024-02-23T02:44:53;101480.91;;;46.76;27.99
76095;BME280;64821;13.710;100.604;2024-02-23T02:45:57;101481.28;;;46.74;27.62
76095;BME280;64821;13.710;100.604;2024-02-23T02:47:03;101484.53;;;46.69;27.16
76095;BME280;64821;13.710;100.604;2024-02-23T02:48:07;101483.28;;;46.77;27.54
76095;BME280;64821;13.710;100.604;2024-02-23T02:49:11;101488.06;;;46.84;27.90
76095;BME280;64821;13.710;100.604;2024-02-23T02:50:15;101486.44;;;46.94;27.87
76095;BME280;64821;13.710;100.604;2024-02-23T02:51:19;101489.63;;;47.03;27.56
76095;BME280;64821;13.710;100.604;2024-02-23T02:52:23;101487.22;;;47.08;27.39
76095;BME280;64821;13.710;100.604;2024-02-23T02:53:26;101478.41;;;47.03;26.97
76095;BME280;64821;13.710;100.604;2024-02-23T02:54:30;101491.63;;;47.02;27.65
76095;BME280;64821;13.710;100.604;2024-02-23T02:55:34;101488.78;;;47.13;27.52
76095;BME280;64821;13.710;100.604;2024-02-23T02:56:42;101487.97;;;47.12;26.58
76095;BME280;64821;13.710;100.604;2024-02-23T02:57:46;101484.84;;;47.00;27.26
76095;BME280;64821;13.710;100.604;2024-02-23T02:58:49;101480.81;;;46.94;27.56
76095;BME280;64821;13.710;100.604;2024-02-23T02:59:53;101486.47;;;47.01;27.31
76095;BME280;64821;13.710;100.604;2024-02-23T03:00:57;101476.06;;;46.84;27.48
76095;BME280;64821;13.710;100.604;2024-02-23T03:02:02;101491.25;;;46.97;27.74
76095;BME280;64821;13.710;100.604;2024-02-23T03:03:06;101490.84;;;47.05;27.18
76095;BME280;64821;13.710;100.604;2024-02-23T03:04:10;101493.59;;;47.12;27.42
76095;BME280;64821;13.710;100.604;2024-02-23T03:05:14;101492.78;;;47.16;26.89
76095;BME280;64821;13.710;100.604;2024-02-23T03:06:18;101491.22;;;47.04;27.46
76095;BME280;64821;13.710;100.604;2024-02-23T03:07:21;101498.06;;;46.96;27.46
76095;BME280;64821;13.710;100.604;2024-02-23T03:08:25;101496.09;;;46.89;27.39
76095;BME280;64821;13.710;100.604;2024-02-23T03:09:29;101496.03;;;47.03;27.43
76095;BME280;64821;13.710;100.604;2024-02-23T03:10:33;101469.25;;;46.88;27.22
76095;BME280;64821;13.710;100.604;2024-02-23T03:11:37;101490.03;;;46.98;26.94
76095;BME280;64821;13.710;100.604;2024-02-23T03:12:41;101490.44;;;47.03;27.11
76095;BME280;64821;13.710;100.604;2024-02-23T03:13:44;101491.19;;;47.14;26.79
76095;BME280;64821;13.710;100.604;2024-02-23T03:14:48;101487.97;;;47.12;26.90
76095;BME280;64821;13.710;100.604;2024-02-23T03:15:52;101497.19;;;47.20;26.57
76095;BME280;64821;13.710;100.604;2024-02-23T03:16:56;101491.94;;;47.22;26.56
76095;BME280;64821;13.710;100.604;2024-02-23T03:18:01;101488.34;;;47.25;26.66
76095;BME280;64821;13.710;100.604;2024-02-23T03:19:05;101488.78;;;47.20;26.59
76095;BME280;64821;13.710;100.604;2024-02-23T03:20:10;101492.38;;;47.17;26.58
76095;BME280;64821;13.710;100.604;2024-02-23T03:21:15;101487.59;;;47.14;27.15
76095;BME280;64821;13.710;100.604;2024-02-23T03:22:18;101489.94;;;47.30;26.59
76095;BME280;64821;13.710;100.604;2024-02-23T03:23:22;101468.41;;;47.02;26.92
76095;BME280;64821;13.710;100.604;2024-02-23T03:24:26;101489.09;;;47.36;26.33
76095;BME280;64821;13.710;100.604;2024-02-23T03:25:30;101487.03;;;47.47;26.63
76095;BME280;64821;13.710;100.604;2024-02-23T03:26:34;101484.25;;;47.44;26.73
76095;BME280;64821;13.710;100.604;2024-02-23T03:27:38;101490.59;;;47.52;26.11
76095;BME280;64821;13.710;100.604;2024-02-23T03:28:41;101493.41;;;47.55;26.11
76095;BME280;64821;13.710;100.604;2024-02-23T03:29:45;101490.19;;;47.57;26.45
76095;BME280;64821;13.710;100.604;2024-02-23T03:30:49;101489.38;;;47.56;26.39
76095;BME280;64821;13.710;100.604;2024-02-23T03:31:53;101477.34;;;47.59;26.02
76095;BME280;64821;13.710;100.604;2024-02-23T03:32:56;101481.78;;;47.57;26.02
76095;BME280;64821;13.710;100.604;2024-02-23T03:34:02;101483.84;;;47.45;25.82
76095;BME280;64821;13.710;100.604;2024-02-23T03:35:07;101483.41;;;47.50;26.04
76095;BME280;64821;13.710;100.604;2024-02-23T03:36:11;101481.84;;;47.46;26.08
76095;BME280;64821;13.710;100.604;2024-02-23T03:37:15;101478.63;;;47.44;25.68
76095;BME280;64821;13.710;100.604;2024-02-23T03:38:18;101484.28;;;47.40;25.94
76095;BME280;64821;13.710;100.604;2024-02-23T03:39:22;101475.03;;;47.43;26.21
76095;BME280;64821;13.710;100.604;2024-02-23T03:40:26;101474.59;;;47.48;25.82
76095;BME280;64821;13.710;100.604;2024-02-23T03:41:30;101476.09;;;47.60;25.84
76095;BME280;64821;13.710;100.604;2024-02-23T03:42:34;101474.22;;;47.46;25.92
76095;BME280;64821;13.710;100.604;2024-02-23T03:43:38;101478.97;;;47.53;25.88
76095;BME280;64821;13.710;100.604;2024-02-23T03:44:41;101476.53;;;47.59;26.13
76095;BME280;64821;13.710;100.604;2024-02-23T03:45:45;101468.53;;;47.57;25.99
76095;BME280;64821;13.710;100.604;2024-02-23T03:46:49;101471.28;;;47.64;25.66
76095;BME280;64821;13.710;100.604;2024-02-23T03:47:53;101461.66;;;47.62;26.16
76095;BME280;64821;13.710;100.604;2024-02-23T03:48:57;101471.66;;;47.70;26.06
76095;BME280;64821;13.710;100.604;2024-02-23T03:50:03;101471.16;;;47.82;24.92
76095;BME280;64821;13.710;100.604;2024-02-23T03:51:08;101471.56;;;47.84;25.46
76095;BME280;64821;13.710;100.604;2024-02-23T03:52:12;101468.34;;;47.85;25.63
76095;BME280;64821;13.710;100.604;2024-02-23T03:53:16;101466.75;;;47.84;25.41
76095;BME280;64821;13.710;100.604;2024-02-23T03:54:19;101473.94;;;47.89;25.40
76095;BME280;64821;13.710;100.604;2024-02-23T03:55:23;101461.03;;;47.95;25.40
76095;BME280;64821;13.710;100.604;2024-02-23T03:56:27;101464.66;;;47.96;25.46
76095;BME280;64821;13.710;100.604;2024-02-23T03:57:31;101471.00;;;48.00;25.53
76095;BME280;64821;13.710;100.604;2024-02-23T03:58:35;101462.56;;;48.03;25.24
76095;BME280;64821;13.710;100.604;2024-02-23T03:59:38;101464.56;;;48.03;25.31
76095;BME280;64821;13.710;100.604;2024-02-23T04:00:43;101460.16;;;48.02;24.77
76095;BME280;64821;13.710;100.604;2024-02-23T04:01:47;101462.97;;;48.09;25.16
76095;BME280;64821;13.710;100.604;2024-02-23T04:02:51;101462.53;;;48.10;25.46
76095;BME280;64821;13.710;100.604;2024-02-23T04:03:58;101465.06;;;47.94;25.49
76095;BME280;64821;13.710;100.604;2024-02-23T04:05:05;101460.31;;;47.88;24.99
76095;BME280;64821;13.710;100.604;2024-02-23T04:06:09;101461.44;;;47.94;25.34
76095;BME280;64821;13.710;100.604;2024-02-23T04:07:13;101446.38;;;47.70;25.61
76095;BME280;64821;13.710;100.604;2024-02-23T04:08:16;101450.81;;;47.64;25.45
76095;BME280;64821;13.710;100.604;2024-02-23T04:09:20;101457.22;;;47.68;25.87
76095;BME280;64821;13.710;100.604;2024-02-23T04:10:24;101446.47;;;47.59;25.47
76095;BME280;64821;13.710;100.604;2024-02-23T04:11:28;101418.00;;;47.54;25.66
76095;BME280;64821;13.710;100.604;2024-02-23T04:12:32;101445.56;;;47.73;25.61
76095;BME280;64821;13.710;100.604;2024-02-23T04:13:35;101441.94;;;47.76;25.18
76095;BME280;64821;13.710;100.604;2024-02-23T04:14:39;101441.94;;;47.76;25.35
76095;BME280;64821;13.710;100.604;2024-02-23T04:15:43;101438.75;;;47.74;25.67
76095;BME280;64821;13.710;100.604;2024-02-23T04:16:47;101446.75;;;47.79;25.80
76095;BME280;64821;13.710;100.604;2024-02-23T04:17:51;101444.25;;;47.88;25.46
76095;BME280;64821;13.710;100.604;2024-02-23T04:18:55;101436.97;;;47.91;25.04
76095;BME280;64821;13.710;100.604;2024-02-23T04:20:00;101426.63;;;47.80;25.37
76095;BME280;64821;13.710;100.604;2024-02-23T04:21:10;101436.34;;;47.72;25.42
76095;BME280;64821;13.710;100.604;2024-02-23T04:22:14;101435.53;;;47.72;25.37
76095;BME280;64821;13.710;100.604;2024-02-23T04:23:17;101435.97;;;47.63;26.00
76095;BME280;64821;13.710;100.604;2024-02-23T04:24:21;101425.22;;;47.58;26.04
76095;BME280;64821;13.710;100.604;2024-02-23T04:25:28;101425.91;;;47.73;25.81
76095;BME280;64821;13.710;100.604;2024-02-23T04:26:32;101422.69;;;47.71;25.79
76095;BME280;64821;13.710;100.604;2024-02-23T04:27:36;101419.47;;;47.76;25.30
76095;BME280;64821;13.710;100.604;2024-02-23T04:28:40;101405.09;;;47.67;25.16
76095;BME280;64821;13.710;100.604;2024-02-23T04:29:43;101410.47;;;47.95;25.52
76095;BME280;64821;13.710;100.604;2024-02-23T04:30:47;101414.81;;;48.00;25.33
76095;BME280;64821;13.710;100.604;2024-02-23T04:31:51;101420.56;;;47.89;25.40
76095;BME280;64821;13.710;100.604;2024-02-23T04:32:55;101409.06;;;47.69;25.62
76095;BME280;64821;13.710;100.604;2024-02-23T04:33:59;101419.06;;;47.77;25.46
76095;BME280;64821;13.710;100.604;2024-02-23T04:35:03;101410.72;;;47.63;25.51
76095;BME280;64821;13.710;100.604;2024-02-23T04:36:09;101412.00;;;47.52;26.30
76095;BME280;64821;13.710;100.604;2024-02-23T04:37:12;101410.38;;;47.54;25.65
76095;BME280;64821;13.710;100.604;2024-02-23T04:38:16;101397.41;;;47.74;25.87
76095;BME280;64821;13.710;100.604;2024-02-23T04:39:20;101402.63;;;47.76;25.78
76095;BME280;64821;13.710;100.604;2024-02-23T04:40:24;101403.66;;;47.93;25.42
76095;BME280;64821;13.710;100.604;2024-02-23T04:41:28;101395.97;;;48.00;25.56
76095;BME280;64821;13.710;100.604;2024-02-23T04:42:32;101397.53;;;48.08;25.14
76095;BME280;64821;13.710;100.604;2024-02-23T04:43:35;101399.06;;;48.16;25.36
76095;BME280;64821;13.710;100.604;2024-02-23T04:44:41;101400.56;;;48.25;24.68
76095;BME280;64821;13.710;100.604;2024-02-23T04:45:45;101387.91;;;48.06;25.16
76095;BME280;64821;13.710;100.604;2024-02-23T04:46:49;101388.22;;;48.15;25.54
76095;BME280;64821;13.710;100.604;2024-02-23T04:47:53;101389.06;;;48.12;25.34
76095;BME280;64821;13.710;100.604;2024-02-23T04:48:57;101393.81;;;48.18;25.42
76095;BME280;64821;13.710;100.604;2024-02-23T04:50:00;101391.38;;;48.20;25.04
76095;BME280;64821;13.710;100.604;2024-02-23T04:51:04;101388.13;;;48.26;25.45
76095;BME280;64821;13.710;100.604;2024-02-23T04:52:10;101383.78;;;48.17;25.08
76095;BME280;64821;13.710;100.604;2024-02-23T04:53:13;101387.31;;;48.25;25.34
76095;BME280;64821;13.710;100.604;2024-02-23T04:54:17;101368.84;;;48.24;25.00
76095;BME280;64821;13.710;100.604;2024-02-23T04:55:21;101381.16;;;48.37;24.91
76095;BME280;64821;13.710;100.604;2024-02-23T04:56:25;101368.63;;;48.45;25.26
76095;BME280;64821;13.710;100.604;2024-02-23T04:57:28;101368.25;;;48.43;25.35
76095;BME280;64821;13.710;100.604;2024-02-23T04:58:32;101372.16;;;48.53;24.85
76095;BME280;64821;13.710;100.604;2024-02-23T04:59:36;101361.75;;;48.50;24.80
76095;BME280;64821;13.710;100.604;2024-02-23T05:00:40;101364.91;;;48.55;24.84
76095;BME280;64821;13.710;100.604;2024-02-23T05:01:43;101365.75;;;48.49;25.03
76095;BME280;64821;13.710;100.604;2024-02-23T05:02:47;101354.97;;;48.47;24.95
76095;BME280;64821;13.710;100.604;2024-02-23T05:03:51;101351.28;;;48.50;24.92
76095;BME280;64821;13.710;100.604;2024-02-23T05:04:55;101343.34;;;48.42;24.92
76095;BME280;64821;13.710;100.604;2024-02-23T05:05:59;101349.75;;;48.46;24.74
76095;BME280;64821;13.710;100.604;2024-02-23T05:07:03;101345.59;;;48.58;25.01
76095;BME280;64821;13.710;100.604;2024-02-23T05:08:08;101342.72;;;48.61;24.09
76095;BME280;64821;13.710;100.604;2024-02-23T05:09:12;101345.28;;;48.48;24.61
76095;BME280;64821;13.710;100.604;2024-02-23T05:10:17;101344.06;;;48.49;24.44
76095;BME280;64821;13.710;100.604;2024-02-23T05:11:21;101347.78;;;48.39;24.84
76095;BME280;64821;13.710;100.604;2024-02-23T05:12:25;101343.75;;;48.40;25.02
76095;BME280;64821;13.710;100.604;2024-02-23T05:13:28;101341.06;;;48.30;25.24
76095;BME280;64821;13.710;100.604;2024-02-23T05:14:32;101322.28;;;48.23;25.26
76095;BME280;64821;13.710;100.604;2024-02-23T05:15:36;101344.56;;;48.41;24.82
76095;BME280;64821;13.710;100.604;2024-02-23T05:16:40;101337.81;;;48.35;24.84
76095;BME280;64821;13.710;100.604;2024-02-23T05:17:43;101335.00;;;48.35;25.03
76095;BME280;64821;13.710;100.604;2024-02-23T05:18:47;101330.59;;;48.34;24.91
76095;BME280;64821;13.710;100.604;2024-02-23T05:19:51;101323.06;;;48.27;25.11
76095;BME280;64821;13.710;100.604;2024-02-23T05:20:55;101328.41;;;48.14;24.90
76095;BME280;64821;13.710;100.604;2024-02-23T05:21:59;101328.53;;;48.00;25.12
76095;BME280;64821;13.710;100.604;2024-02-23T05:23:02;101323.38;;;47.99;25.17
76095;BME280;64821;13.710;100.604;2024-02-23T05:24:08;101322.63;;;47.91;24.77
76095;BME280;64821;13.710;100.604;2024-02-23T05:25:12;101311.03;;;47.89;25.33
76095;BME280;64821;13.710;100.604;2024-02-23T05:26:15;101327.66;;;48.10;25.21
76095;BME280;64821;13.710;100.604;2024-02-23T05:27:19;101328.03;;;48.12;25.06